sensor_id;sensor_type;location;lat;lon;timestamp;P1;durP1;ratioP1;P2;durP2;ratioP2
1603;SDS011;795;49.296;11.348;2023-04-06T00:00:57;9.25;;;7.38;;
1603;SDS011;795;49.296;11.348;2023-04-06T00:03:25;8.90;;;6.50;;
1603;SDS011;795;49.296;11.348;2023-04-06T00:05:52;13.43;;;6.88;;
1603;SDS011;795;49.296;11.348;2023-04-06T00:08:19;10.95;;;6.95;;
1603;SDS011;795;49.296;11.348;2023-04-06T00:10:47;12.68;;;7.50;;
1603;SDS011;795;49.296;11.348;2023-04-06T00:13:14;10.73;;;6.65;;
1603;SDS011;795;49.296;11.348;2023-04-06T00:15:41;9.07;;;6.57;;
1603;SDS011;795;49.296;11.348;2023-04-06T00:18:08;11.32;;;6.70;;
1603;SDS011;795;49.296;11.348;2023-04-06T00:20:35;8.13;;;6.50;;
1603;SDS011;795;49.296;11.348;2023-04-06T00:23:02;7.65;;;6.55;;
1603;SDS011;795;49.296;11.348;2023-04-06T00:25:29;8.10;;;5.70;;
1603;SDS011;795;49.296;11.348;2023-04-06T00:27:56;7.63;;;6.80;;
1603;SDS011;795;49.296;11.348;2023-04-06T00:30:23;12.30;;;6.38;;
1603;SDS011;795;49.296;11.348;2023-04-06T00:32:50;9.27;;;6.70;;
1603;SDS011;795;49.296;11.348;2023-04-06T00:35:17;9.65;;;6.63;;
1603;SDS011;795;49.296;11.348;2023-04-06T00:37:46;6.90;;;6.25;;
1603;SDS011;795;49.296;11.348;2023-04-06T00:40:14;8.48;;;6.20;;
1603;SDS011;795;49.296;11.348;2023-04-06T00:42:41;6.70;;;6.10;;
1603;SDS011;795;49.296;11.348;2023-04-06T00:45:09;13.18;;;6.30;;
1603;SDS011;795;49.296;11.348;2023-04-06T00:47:36;6.82;;;5.68;;
1603;SDS011;795;49.296;11.348;2023-04-06T00:50:04;12.98;;;8.30;;
1603;SDS011;795;49.296;11.348;2023-04-06T00:52:33;13.30;;;6.70;;
1603;SDS011;795;49.296;11.348;2023-04-06T00:55:02;7.85;;;4.97;;
1603;SDS011;795;49.296;11.348;2023-04-06T00:57:30;7.55;;;6.13;;
1603;SDS011;795;49.296;11.348;2023-04-06T00:59:58;9.32;;;6.38;;
1603;SDS011;795;49.296;11.348;2023-04-06T01:02:25;9.52;;;6.78;;
1603;SDS011;795;49.296;11.348;2023-04-06T01:04:52;10.07;;;6.75;;
1603;SDS011;795;49.296;11.348;2023-04-06T01:07:22;7.82;;;6.43;;
1603;SDS011;795;49.296;11.348;2023-04-06T01:09:52;12.20;;;6.70;;
1603;SDS011;795;49.296;11.348;2023-04-06T01:12:20;6.63;;;5.90;;
1603;SDS011;795;49.296;11.348;2023-04-06T01:14:47;6.43;;;5.80;;
1603;SDS011;795;49.296;11.348;2023-04-06T01:17:14;7.38;;;6.45;;
1603;SDS011;795;49.296;11.348;2023-04-06T01:19:42;8.35;;;6.68;;
1603;SDS011;795;49.296;11.348;2023-04-06T01:22:15;6.82;;;5.80;;
1603;SDS011;795;49.296;11.348;2023-04-06T01:24:44;7.78;;;6.53;;
1603;SDS011;795;49.296;11.348;2023-04-06T01:27:12;7.30;;;5.85;;
1603;SDS011;795;49.296;11.348;2023-04-06T01:29:39;7.97;;;6.05;;
1603;SDS011;795;49.296;11.348;2023-04-06T01:32:07;6.90;;;5.32;;
1603;SDS011;795;49.296;11.348;2023-04-06T01:34:35;8.60;;;6.15;;
1603;SDS011;795;49.296;11.348;2023-04-06T01:37:02;7.72;;;5.90;;
1603;SDS011;795;49.296;11.348;2023-04-06T01:39:30;6.65;;;5.95;;
1603;SDS011;795;49.296;11.348;2023-04-06T01:41:57;10.90;;;6.78;;
1603;SDS011;795;49.296;11.348;2023-04-06T01:44:23;7.50;;;5.00;;
1603;SDS011;795;49.296;11.348;2023-04-06T01:46:51;6.90;;;5.25;;
1603;SDS011;795;49.296;11.348;2023-04-06T01:49:18;7.45;;;5.55;;
1603;SDS011;795;49.296;11.348;2023-04-06T01:51:45;6.40;;;5.40;;
1603;SDS011;795;49.296;11.348;2023-04-06T01:54:11;8.88;;;5.43;;
1603;SDS011;795;49.296;11.348;2023-04-06T01:56:38;7.72;;;5.65;;
1603;SDS011;795;49.296;11.348;2023-04-06T01:59:06;7.50;;;5.57;;
1603;SDS011;795;49.296;11.348;2023-04-06T02:01:34;6.20;;;5.70;;
1603;SDS011;795;49.296;11.348;2023-04-06T02:04:01;6.80;;;6.18;;
1603;SDS011;795;49.296;11.348;2023-04-06T02:06:28;7.97;;;5.40;;
1603;SDS011;795;49.296;11.348;2023-04-06T02:08:55;5.82;;;4.85;;
1603;SDS011;795;49.296;11.348;2023-04-06T02:11:22;8.10;;;5.68;;
1603;SDS011;795;49.296;11.348;2023-04-06T02:13:48;5.82;;;5.22;;
1603;SDS011;795;49.296;11.348;2023-04-06T02:16:15;6.03;;;4.90;;
1603;SDS011;795;49.296;11.348;2023-04-06T02:18:42;9.80;;;5.57;;
1603;SDS011;795;49.296;11.348;2023-04-06T02:21:09;8.70;;;5.55;;
1603;SDS011;795;49.296;11.348;2023-04-06T02:23:36;7.88;;;5.18;;
1603;SDS011;795;49.296;11.348;2023-04-06T02:26:03;6.60;;;5.78;;
1603;SDS011;795;49.296;11.348;2023-04-06T02:28:30;12.20;;;6.78;;
1603;SDS011;795;49.296;11.348;2023-04-06T02:30:57;9.55;;;6.13;;
1603;SDS011;795;49.296;11.348;2023-04-06T02:33:24;4.95;;;4.45;;
1603;SDS011;795;49.296;11.348;2023-04-06T02:35:51;7.25;;;5.38;;
1603;SDS011;795;49.296;11.348;2023-04-06T02:38:18;6.95;;;5.20;;
1603;SDS011;795;49.296;11.348;2023-04-06T02:40:45;6.05;;;5.15;;
1603;SDS011;795;49.296;11.348;2023-04-06T02:43:12;5.07;;;4.60;;
1603;SDS011;795;49.296;11.348;2023-04-06T02:45:39;8.95;;;4.55;;
1603;SDS011;795;49.296;11.348;2023-04-06T02:48:06;7.47;;;5.00;;
1603;SDS011;795;49.296;11.348;2023-04-06T02:50:33;5.95;;;4.95;;
1603;SDS011;795;49.296;11.348;2023-04-06T02:52:59;4.68;;;4.20;;
1603;SDS011;795;49.296;11.348;2023-04-06T02:55:26;11.45;;;5.30;;
1603;SDS011;795;49.296;11.348;2023-04-06T02:57:53;5.40;;;4.40;;
1603;SDS011;795;49.296;11.348;2023-04-06T03:00:20;5.65;;;5.15;;
1603;SDS011;795;49.296;11.348;2023-04-06T03:02:47;5.30;;;4.60;;
1603;SDS011;795;49.296;11.348;2023-04-06T03:05:14;5.55;;;5.00;;
1603;SDS011;795;49.296;11.348;2023-04-06T03:07:41;10.00;;;4.57;;
1603;SDS011;795;49.296;11.348;2023-04-06T03:10:09;6.13;;;4.32;;
1603;SDS011;795;49.296;11.348;2023-04-06T03:12:36;7.25;;;4.63;;
1603;SDS011;795;49.296;11.348;2023-04-06T03:15:03;7.85;;;4.30;;
1603;SDS011;795;49.296;11.348;2023-04-06T03:17:31;8.68;;;4.20;;
1603;SDS011;795;49.296;11.348;2023-04-06T03:19:58;6.28;;;4.70;;
1603;SDS011;795;49.296;11.348;2023-04-06T03:22:25;6.75;;;4.93;;
1603;SDS011;795;49.296;11.348;2023-04-06T03:24:52;4.97;;;4.50;;
1603;SDS011;795;49.296;11.348;2023-04-06T03:27:19;5.50;;;4.78;;
1603;SDS011;795;49.296;11.348;2023-04-06T03:29:45;9.65;;;5.45;;
1603;SDS011;795;49.296;11.348;2023-04-06T03:32:12;6.95;;;4.47;;
1603;SDS011;795;49.296;11.348;2023-04-06T03:34:39;7.00;;;5.85;;
1603;SDS011;795;49.296;11.348;2023-04-06T03:37:06;10.85;;;4.95;;
1603;SDS011;795;49.296;11.348;2023-04-06T03:39:36;9.65;;;5.35;;
1603;SDS011;795;49.296;11.348;2023-04-06T03:42:03;5.45;;;4.07;;
1603;SDS011;795;49.296;11.348;2023-04-06T03:44:30;7.50;;;5.40;;
1603;SDS011;795;49.296;11.348;2023-04-06T03:46:57;6.45;;;5.30;;
1603;SDS011;795;49.296;11.348;2023-04-06T03:49:24;5.75;;;5.13;;
1603;SDS011;795;49.296;11.348;2023-04-06T03:51:52;9.55;;;5.13;;
1603;SDS011;795;49.296;11.348;2023-04-06T03:54:19;11.45;;;5.20;;
1603;SDS011;795;49.296;11.348;2023-04-06T03:56:46;6.28;;;4.95;;
1603;SDS011;795;49.296;11.348;2023-04-06T03:59:13;6.72;;;5.63;;
1603;SDS011;795;49.296;11.348;2023-04-06T04:01:41;7.07;;;5.60;;
1603;SDS011;795;49.296;11.348;2023-04-06T04:04:08;5.90;;;5.30;;
1603;SDS011;795;49.296;11.348;2023-04-06T04:06:36;5.40;;;4.95;;
1603;SDS011;795;49.296;11.348;2023-04-06T04:09:03;7.30;;;5.10;;
1603;SDS011;795;49.296;11.348;2023-04-06T04:11:30;6.45;;;5.43;;
1603;SDS011;795;49.296;11.348;2023-04-06T04:13:57;6.95;;;6.25;;
1603;SDS011;795;49.296;11.348;2023-04-06T04:16:23;7.55;;;5.90;;
1603;SDS011;795;49.296;11.348;2023-04-06T04:18:51;9.70;;;6.32;;
1603;SDS011;795;49.296;11.348;2023-04-06T04:21:18;11.65;;;5.10;;
1603;SDS011;795;49.296;11.348;2023-04-06T04:23:45;7.63;;;6.10;;
1603;SDS011;795;49.296;11.348;2023-04-06T04:26:12;7.15;;;5.75;;
1603;SDS011;795;49.296;11.348;2023-04-06T04:28:39;11.27;;;6.47;;
1603;SDS011;795;49.296;11.348;2023-04-06T04:31:06;6.72;;;5.88;;
1603;SDS011;795;49.296;11.348;2023-04-06T04:33:33;9.48;;;5.93;;
1603;SDS011;795;49.296;11.348;2023-04-06T04:36:00;7.68;;;5.90;;
1603;SDS011;795;49.296;11.348;2023-04-06T04:38:27;12.90;;;6.70;;
1603;SDS011;795;49.296;11.348;2023-04-06T04:40:53;8.20;;;6.43;;
1603;SDS011;795;49.296;11.348;2023-04-06T04:43:21;8.25;;;6.00;;
1603;SDS011;795;49.296;11.348;2023-04-06T04:45:47;9.95;;;7.90;;
1603;SDS011;795;49.296;11.348;2023-04-06T04:48:14;14.38;;;7.05;;
1603;SDS011;795;49.296;11.348;2023-04-06T04:50:41;12.23;;;6.85;;
1603;SDS011;795;49.296;11.348;2023-04-06T04:53:08;8.75;;;6.30;;
1603;SDS011;795;49.296;11.348;2023-04-06T04:55:35;10.40;;;7.50;;
1603;SDS011;795;49.296;11.348;2023-04-06T04:58:02;9.63;;;6.35;;
1603;SDS011;795;49.296;11.348;2023-04-06T05:00:29;7.65;;;6.13;;
1603;SDS011;795;49.296;11.348;2023-04-06T05:02:56;9.00;;;6.75;;
1603;SDS011;795;49.296;11.348;2023-04-06T05:05:23;6.80;;;6.10;;
1603;SDS011;795;49.296;11.348;2023-04-06T05:07:50;8.57;;;6.95;;
1603;SDS011;795;49.296;11.348;2023-04-06T05:10:17;8.18;;;6.97;;
1603;SDS011;795;49.296;11.348;2023-04-06T05:12:44;12.55;;;6.70;;
1603;SDS011;795;49.296;11.348;2023-04-06T05:15:11;9.60;;;5.88;;
1603;SDS011;795;49.296;11.348;2023-04-06T05:17:38;6.32;;;5.50;;
1603;SDS011;795;49.296;11.348;2023-04-06T05:20:06;6.10;;;5.50;;
1603;SDS011;795;49.296;11.348;2023-04-06T05:22:34;5.88;;;5.25;;
1603;SDS011;795;49.296;11.348;2023-04-06T05:25:01;8.90;;;6.00;;
1603;SDS011;795;49.296;11.348;2023-04-06T05:27:29;11.18;;;6.72;;
1603;SDS011;795;49.296;11.348;2023-04-06T05:29:56;8.48;;;6.40;;
1603;SDS011;795;49.296;11.348;2023-04-06T05:32:23;7.57;;;6.25;;
1603;SDS011;795;49.296;11.348;2023-04-06T05:34:50;10.43;;;6.57;;
1603;SDS011;795;49.296;11.348;2023-04-06T05:37:18;10.35;;;6.07;;
1603;SDS011;795;49.296;11.348;2023-04-06T05:39:45;7.78;;;5.93;;
1603;SDS011;795;49.296;11.348;2023-04-06T05:42:12;7.35;;;6.28;;
1603;SDS011;795;49.296;11.348;2023-04-06T05:44:39;11.95;;;6.68;;
1603;SDS011;795;49.296;11.348;2023-04-06T05:47:06;6.68;;;6.03;;
1603;SDS011;795;49.296;11.348;2023-04-06T05:49:34;7.22;;;5.53;;
1603;SDS011;795;49.296;11.348;2023-04-06T05:52:01;9.82;;;6.38;;
1603;SDS011;795;49.296;11.348;2023-04-06T05:54:28;9.38;;;6.82;;
1603;SDS011;795;49.296;11.348;2023-04-06T05:56:55;10.45;;;7.28;;
1603;SDS011;795;49.296;11.348;2023-04-06T05:59:22;9.93;;;6.18;;
1603;SDS011;795;49.296;11.348;2023-04-06T06:01:49;10.00;;;6.40;;
1603;SDS011;795;49.296;11.348;2023-04-06T06:04:16;6.45;;;5.82;;
1603;SDS011;795;49.296;11.348;2023-04-06T06:06:43;7.30;;;6.00;;
1603;SDS011;795;49.296;11.348;2023-04-06T06:09:10;9.15;;;6.18;;
1603;SDS011;795;49.296;11.348;2023-04-06T06:11:37;9.77;;;5.97;;
1603;SDS011;795;49.296;11.348;2023-04-06T06:14:04;7.17;;;6.43;;
1603;SDS011;795;49.296;11.348;2023-04-06T06:16:31;9.63;;;6.45;;
1603;SDS011;795;49.296;11.348;2023-04-06T06:18:59;8.30;;;6.93;;
1603;SDS011;795;49.296;11.348;2023-04-06T06:21:26;6.50;;;5.90;;
1603;SDS011;795;49.296;11.348;2023-04-06T06:23:53;7.80;;;5.87;;
1603;SDS011;795;49.296;11.348;2023-04-06T06:26:20;7.83;;;5.67;;
1603;SDS011;795;49.296;11.348;2023-04-06T06:28:47;6.57;;;5.23;;
1603;SDS011;795;49.296;11.348;2023-04-06T06:31:14;6.73;;;5.87;;
1603;SDS011;795;49.296;11.348;2023-04-06T06:33:42;8.63;;;6.53;;
1603;SDS011;795;49.296;11.348;2023-04-06T06:36:09;6.10;;;5.60;;
1603;SDS011;795;49.296;11.348;2023-04-06T06:38:36;5.70;;;4.90;;
1603;SDS011;795;49.296;11.348;2023-04-06T06:41:04;8.77;;;6.10;;
1603;SDS011;795;49.296;11.348;2023-04-06T06:43:31;9.97;;;7.27;;
1603;SDS011;795;49.296;11.348;2023-04-06T06:45:58;9.03;;;6.37;;
1603;SDS011;795;49.296;11.348;2023-04-06T06:48:25;8.97;;;6.20;;
1603;SDS011;795;49.296;11.348;2023-04-06T06:50:52;10.17;;;5.90;;
1603;SDS011;795;49.296;11.348;2023-04-06T06:53:19;5.67;;;5.10;;
1603;SDS011;795;49.296;11.348;2023-04-06T06:55:46;6.37;;;5.53;;
1603;SDS011;795;49.296;11.348;2023-04-06T06:58:15;9.90;;;6.50;;
1603;SDS011;795;49.296;11.348;2023-04-06T07:00:45;8.07;;;6.47;;
1603;SDS011;795;49.296;11.348;2023-04-06T07:03:12;8.20;;;6.33;;
1603;SDS011;795;49.296;11.348;2023-04-06T07:05:45;9.77;;;5.90;;
1603;SDS011;795;49.296;11.348;2023-04-06T07:08:20;8.53;;;6.50;;
1603;SDS011;795;49.296;11.348;2023-04-06T07:10:49;8.00;;;6.53;;
1603;SDS011;795;49.296;11.348;2023-04-06T07:13:19;7.70;;;5.67;;
1603;SDS011;795;49.296;11.348;2023-04-06T07:15:50;8.57;;;7.00;;
1603;SDS011;795;49.296;11.348;2023-04-06T07:18:17;7.27;;;6.60;;
1603;SDS011;795;49.296;11.348;2023-04-06T07:20:45;7.80;;;6.93;;
1603;SDS011;795;49.296;11.348;2023-04-06T07:23:13;6.70;;;6.00;;
1603;SDS011;795;49.296;11.348;2023-04-06T07:25:40;6.93;;;5.90;;
1603;SDS011;795;49.296;11.348;2023-04-06T07:28:08;7.73;;;5.47;;
1603;SDS011;795;49.296;11.348;2023-04-06T07:30:35;6.60;;;5.90;;
1603;SDS011;795;49.296;11.348;2023-04-06T07:33:04;9.67;;;5.63;;
1603;SDS011;795;49.296;11.348;2023-04-06T07:35:31;8.30;;;5.80;;
1603;SDS011;795;49.296;11.348;2023-04-06T07:38:00;8.37;;;6.60;;
1603;SDS011;795;49.296;11.348;2023-04-06T07:40:27;13.03;;;6.37;;
1603;SDS011;795;49.296;11.348;2023-04-06T07:42:54;10.87;;;5.70;;
1603;SDS011;795;49.296;11.348;2023-04-06T07:45:23;7.80;;;6.00;;
1603;SDS011;795;49.296;11.348;2023-04-06T07:47:50;7.70;;;7.00;;
1603;SDS011;795;49.296;11.348;2023-04-06T07:50:17;7.50;;;6.40;;
1603;SDS011;795;49.296;11.348;2023-04-06T07:52:44;8.93;;;6.33;;
1603;SDS011;795;49.296;11.348;2023-04-06T07:55:11;7.67;;;6.87;;
1603;SDS011;795;49.296;11.348;2023-04-06T07:57:38;6.60;;;5.90;;
1603;SDS011;795;49.296;11.348;2023-04-06T08:00:05;10.43;;;6.27;;
1603;SDS011;795;49.296;11.348;2023-04-06T08:03:45;7.10;;;6.40;;
1603;SDS011;795;49.296;11.348;2023-04-06T08:06:13;8.70;;;6.73;;
1603;SDS011;795;49.296;11.348;2023-04-06T08:08:40;5.53;;;5.03;;
1603;SDS011;795;49.296;11.348;2023-04-06T08:11:08;8.27;;;5.90;;
1603;SDS011;795;49.296;11.348;2023-04-06T08:13:35;6.73;;;6.03;;
1603;SDS011;795;49.296;11.348;2023-04-06T08:16:02;11.40;;;6.30;;
1603;SDS011;795;49.296;11.348;2023-04-06T08:18:30;10.37;;;6.50;;
1603;SDS011;795;49.296;11.348;2023-04-06T08:20:57;6.57;;;5.90;;
1603;SDS011;795;49.296;11.348;2023-04-06T08:23:24;7.10;;;6.40;;
1603;SDS011;795;49.296;11.348;2023-04-06T08:25:51;7.37;;;5.20;;
1603;SDS011;795;49.296;11.348;2023-04-06T08:28:20;7.10;;;6.50;;
1603;SDS011;795;49.296;11.348;2023-04-06T08:30:47;6.00;;;5.43;;
1603;SDS011;795;49.296;11.348;2023-04-06T08:33:14;8.90;;;6.67;;
1603;SDS011;795;49.296;11.348;2023-04-06T08:35:41;7.20;;;5.90;;
1603;SDS011;795;49.296;11.348;2023-04-06T08:38:08;7.60;;;5.47;;
1603;SDS011;795;49.296;11.348;2023-04-06T08:40:36;8.97;;;6.40;;
1603;SDS011;795;49.296;11.348;2023-04-06T08:43:06;6.23;;;5.63;;
1603;SDS011;795;49.296;11.348;2023-04-06T08:45:43;6.50;;;5.90;;
1603;SDS011;795;49.296;11.348;2023-04-06T08:48:10;9.23;;;6.13;;
1603;SDS011;795;49.296;11.348;2023-04-06T08:50:38;7.23;;;5.77;;
1603;SDS011;795;49.296;11.348;2023-04-06T08:53:06;11.57;;;6.63;;
1603;SDS011;795;49.296;11.348;2023-04-06T08:55:34;10.67;;;6.87;;
1603;SDS011;795;49.296;11.348;2023-04-06T08:58:03;7.17;;;5.87;;
1603;SDS011;795;49.296;11.348;2023-04-06T09:00:37;6.43;;;5.83;;
1603;SDS011;795;49.296;11.348;2023-04-06T09:03:05;7.23;;;6.03;;
1603;SDS011;795;49.296;11.348;2023-04-06T09:05:34;5.90;;;5.20;;
1603;SDS011;795;49.296;11.348;2023-04-06T09:08:02;6.63;;;6.03;;
1603;SDS011;795;49.296;11.348;2023-04-06T09:10:29;7.73;;;6.80;;
1603;SDS011;795;49.296;11.348;2023-04-06T09:13:06;6.77;;;6.17;;
1603;SDS011;795;49.296;11.348;2023-04-06T09:15:34;7.50;;;6.67;;
1603;SDS011;795;49.296;11.348;2023-04-06T09:18:04;7.40;;;5.80;;
1603;SDS011;795;49.296;11.348;2023-04-06T09:20:31;7.20;;;6.50;;
1603;SDS011;795;49.296;11.348;2023-04-06T09:22:58;6.90;;;5.50;;
1603;SDS011;795;49.296;11.348;2023-04-06T09:25:25;8.63;;;5.87;;
1603;SDS011;795;49.296;11.348;2023-04-06T09:27:59;8.60;;;6.77;;
1603;SDS011;795;49.296;11.348;2023-04-06T09:30:30;6.43;;;5.57;;
1603;SDS011;795;49.296;11.348;2023-04-06T09:32:58;6.90;;;5.60;;
1603;SDS011;795;49.296;11.348;2023-04-06T09:35:26;9.33;;;6.63;;
1603;SDS011;795;49.296;11.348;2023-04-06T09:37:53;7.50;;;6.20;;
1603;SDS011;795;49.296;11.348;2023-04-06T09:40:21;9.47;;;8.43;;
1603;SDS011;795;49.296;11.348;2023-04-06T09:42:49;8.37;;;7.00;;
1603;SDS011;795;49.296;11.348;2023-04-06T09:45:18;7.57;;;5.90;;
1603;SDS011;795;49.296;11.348;2023-04-06T09:47:47;7.37;;;6.70;;
1603;SDS011;795;49.296;11.348;2023-04-06T09:50:17;8.23;;;7.43;;
1603;SDS011;795;49.296;11.348;2023-04-06T09:52:47;7.23;;;6.30;;
1603;SDS011;795;49.296;11.348;2023-04-06T09:55:33;8.53;;;6.97;;
1603;SDS011;795;49.296;11.348;2023-04-06T09:58:16;7.97;;;6.90;;
1603;SDS011;795;49.296;11.348;2023-04-06T10:06:44;15.93;;;9.20;;
1603;SDS011;795;49.296;11.348;2023-04-06T10:09:18;10.27;;;7.83;;
1603;SDS011;795;49.296;11.348;2023-04-06T10:11:54;9.03;;;7.60;;
1603;SDS011;795;49.296;11.348;2023-04-06T10:14:21;7.80;;;7.10;;
1603;SDS011;795;49.296;11.348;2023-04-06T10:16:49;10.00;;;7.63;;
1603;SDS011;795;49.296;11.348;2023-04-06T10:19:20;8.30;;;7.50;;
1603;SDS011;795;49.296;11.348;2023-04-06T10:21:57;7.50;;;6.80;;
1603;SDS011;795;49.296;11.348;2023-04-06T10:24:28;8.67;;;7.80;;
1603;SDS011;795;49.296;11.348;2023-04-06T10:27:00;14.43;;;7.90;;
1603;SDS011;795;49.296;11.348;2023-04-06T10:29:43;6.80;;;6.20;;
1603;SDS011;795;49.296;11.348;2023-04-06T10:32:17;10.07;;;8.07;;
1603;SDS011;795;49.296;11.348;2023-04-06T10:34:44;12.57;;;7.40;;
1603;SDS011;795;49.296;11.348;2023-04-06T10:37:12;8.27;;;7.43;;
1603;SDS011;795;49.296;11.348;2023-04-06T10:40:17;9.20;;;8.37;;
1603;SDS011;795;49.296;11.348;2023-04-06T10:42:46;8.97;;;8.03;;
1603;SDS011;795;49.296;11.348;2023-04-06T10:45:19;8.00;;;7.30;;
1603;SDS011;795;49.296;11.348;2023-04-06T10:47:52;8.00;;;7.30;;
1603;SDS011;795;49.296;11.348;2023-04-06T10:50:21;7.87;;;7.07;;
1603;SDS011;795;49.296;11.348;2023-04-06T10:52:58;8.50;;;7.70;;
1603;SDS011;795;49.296;11.348;2023-04-06T10:55:28;8.50;;;7.80;;
1603;SDS011;795;49.296;11.348;2023-04-06T10:57:57;8.47;;;7.67;;
1603;SDS011;795;49.296;11.348;2023-04-06T11:00:24;9.50;;;8.50;;
1603;SDS011;795;49.296;11.348;2023-04-06T11:03:08;8.80;;;8.03;;
1603;SDS011;795;49.296;11.348;2023-04-06T11:05:35;9.43;;;8.37;;
1603;SDS011;795;49.296;11.348;2023-04-06T11:08:02;9.00;;;8.10;;
1603;SDS011;795;49.296;11.348;2023-04-06T11:10:29;10.57;;;7.60;;
1603;SDS011;795;49.296;11.348;2023-04-06T11:12:56;8.70;;;7.53;;
1603;SDS011;795;49.296;11.348;2023-04-06T11:15:23;11.27;;;8.33;;
1603;SDS011;795;49.296;11.348;2023-04-06T11:17:50;8.60;;;7.50;;
1603;SDS011;795;49.296;11.348;2023-04-06T11:20:17;8.10;;;7.30;;
1603;SDS011;795;49.296;11.348;2023-04-06T11:22:52;8.60;;;7.90;;
1603;SDS011;795;49.296;11.348;2023-04-06T11:25:19;10.97;;;9.30;;
1603;SDS011;795;49.296;11.348;2023-04-06T11:27:46;11.03;;;9.93;;
1603;SDS011;795;49.296;11.348;2023-04-06T11:30:14;8.10;;;7.33;;
1603;SDS011;795;49.296;11.348;2023-04-06T11:32:43;8.70;;;7.90;;
1603;SDS011;795;49.296;11.348;2023-04-06T11:35:21;8.90;;;8.03;;
1603;SDS011;795;49.296;11.348;2023-04-06T11:37:50;9.13;;;7.10;;
1603;SDS011;795;49.296;11.348;2023-04-06T11:40:23;8.40;;;7.67;;
1603;SDS011;795;49.296;11.348;2023-04-06T11:42:55;9.53;;;7.70;;
1603;SDS011;795;49.296;11.348;2023-04-06T11:45:22;7.97;;;7.27;;
1603;SDS011;795;49.296;11.348;2023-04-06T11:47:56;8.07;;;7.27;;
1603;SDS011;795;49.296;11.348;2023-04-06T11:50:31;7.70;;;7.00;;
1603;SDS011;795;49.296;11.348;2023-04-06T11:53:02;9.40;;;7.13;;
1603;SDS011;795;49.296;11.348;2023-04-06T11:55:36;9.33;;;8.47;;
1603;SDS011;795;49.296;11.348;2023-04-06T11:58:05;11.07;;;6.90;;
1603;SDS011;795;49.296;11.348;2023-04-06T12:00:33;8.60;;;7.73;;
1603;SDS011;795;49.296;11.348;2023-04-06T12:03:00;11.40;;;7.87;;
1603;SDS011;795;49.296;11.348;2023-04-06T12:05:27;10.40;;;7.53;;
1603;SDS011;795;49.296;11.348;2023-04-06T12:07:54;8.67;;;7.77;;
1603;SDS011;795;49.296;11.348;2023-04-06T12:10:25;7.37;;;6.67;;
1603;SDS011;795;49.296;11.348;2023-04-06T12:12:52;8.27;;;7.40;;
1603;SDS011;795;49.296;11.348;2023-04-06T12:15:18;9.63;;;8.73;;
1603;SDS011;795;49.296;11.348;2023-04-06T12:17:45;9.50;;;7.20;;
1603;SDS011;795;49.296;11.348;2023-04-06T12:20:13;7.07;;;6.40;;
1603;SDS011;795;49.296;11.348;2023-04-06T12:22:51;7.70;;;7.00;;
1603;SDS011;795;49.296;11.348;2023-04-06T12:25:19;9.03;;;7.43;;
1603;SDS011;795;49.296;11.348;2023-04-06T12:27:46;7.03;;;6.43;;
1603;SDS011;795;49.296;11.348;2023-04-06T12:30:13;7.70;;;7.00;;
1603;SDS011;795;49.296;11.348;2023-04-06T12:32:41;7.63;;;6.93;;
1603;SDS011;795;49.296;11.348;2023-04-06T12:35:08;7.20;;;6.60;;
1603;SDS011;795;49.296;11.348;2023-04-06T12:37:35;8.37;;;7.47;;
1603;SDS011;795;49.296;11.348;2023-04-06T12:40:02;8.07;;;7.27;;
1603;SDS011;795;49.296;11.348;2023-04-06T12:42:30;8.57;;;7.77;;
1603;SDS011;795;49.296;11.348;2023-04-06T12:44:57;9.00;;;8.10;;
1603;SDS011;795;49.296;11.348;2023-04-06T12:47:25;7.87;;;7.03;;
1603;SDS011;795;49.296;11.348;2023-04-06T12:49:52;8.00;;;7.30;;
1603;SDS011;795;49.296;11.348;2023-04-06T12:52:20;8.77;;;8.00;;
1603;SDS011;795;49.296;11.348;2023-04-06T12:54:47;8.30;;;7.10;;
1603;SDS011;795;49.296;11.348;2023-04-06T12:57:16;9.13;;;8.30;;
1603;SDS011;795;49.296;11.348;2023-04-06T12:59:43;8.43;;;7.70;;
1603;SDS011;795;49.296;11.348;2023-04-06T13:02:11;8.20;;;7.40;;
1603;SDS011;795;49.296;11.348;2023-04-06T13:04:38;7.93;;;7.23;;
1603;SDS011;795;49.296;11.348;2023-04-06T13:07:05;8.67;;;6.83;;
1603;SDS011;795;49.296;11.348;2023-04-06T13:09:32;8.33;;;7.30;;
1603;SDS011;795;49.296;11.348;2023-04-06T13:11:59;8.10;;;6.63;;
1603;SDS011;795;49.296;11.348;2023-04-06T13:14:27;7.10;;;6.50;;
1603;SDS011;795;49.296;11.348;2023-04-06T13:16:53;7.97;;;7.20;;
1603;SDS011;795;49.296;11.348;2023-04-06T13:19:21;6.53;;;6.00;;
1603;SDS011;795;49.296;11.348;2023-04-06T13:21:48;7.90;;;6.97;;
1603;SDS011;795;49.296;11.348;2023-04-06T13:24:15;8.50;;;7.60;;
1603;SDS011;795;49.296;11.348;2023-04-06T13:26:43;6.40;;;5.90;;
1603;SDS011;795;49.296;11.348;2023-04-06T13:29:10;7.47;;;6.77;;
1603;SDS011;795;49.296;11.348;2023-04-06T13:31:37;8.00;;;7.30;;
1603;SDS011;795;49.296;11.348;2023-04-06T13:34:05;7.60;;;6.90;;
1603;SDS011;795;49.296;11.348;2023-04-06T13:36:32;7.60;;;7.00;;
1603;SDS011;795;49.296;11.348;2023-04-06T13:38:59;7.37;;;6.67;;
1603;SDS011;795;49.296;11.348;2023-04-06T13:41:26;7.63;;;7.03;;
1603;SDS011;795;49.296;11.348;2023-04-06T13:43:53;8.67;;;7.20;;
1603;SDS011;795;49.296;11.348;2023-04-06T13:46:20;8.13;;;7.33;;
1603;SDS011;795;49.296;11.348;2023-04-06T13:48:50;9.50;;;6.83;;
1603;SDS011;795;49.296;11.348;2023-04-06T13:51:17;7.90;;;7.20;;
1603;SDS011;795;49.296;11.348;2023-04-06T13:53:44;7.93;;;6.73;;
1603;SDS011;795;49.296;11.348;2023-04-06T13:56:11;10.17;;;7.10;;
1603;SDS011;795;49.296;11.348;2023-04-06T13:58:38;11.73;;;7.27;;
1603;SDS011;795;49.296;11.348;2023-04-06T14:01:08;7.57;;;6.87;;
1603;SDS011;795;49.296;11.348;2023-04-06T14:03:36;9.00;;;7.60;;
1603;SDS011;795;49.296;11.348;2023-04-06T14:06:09;7.10;;;6.40;;
1603;SDS011;795;49.296;11.348;2023-04-06T14:08:55;7.63;;;6.20;;
1603;SDS011;795;49.296;11.348;2023-04-06T14:11:22;7.87;;;6.83;;
1603;SDS011;795;49.296;11.348;2023-04-06T14:13:49;9.53;;;6.33;;
1603;SDS011;795;49.296;11.348;2023-04-06T14:16:16;8.07;;;7.10;;
1603;SDS011;795;49.296;11.348;2023-04-06T14:18:45;8.50;;;7.43;;
1603;SDS011;795;49.296;11.348;2023-04-06T14:21:12;7.37;;;6.70;;
1603;SDS011;795;49.296;11.348;2023-04-06T14:23:39;7.17;;;6.57;;
1603;SDS011;795;49.296;11.348;2023-04-06T14:26:07;9.07;;;6.77;;
1603;SDS011;795;49.296;11.348;2023-04-06T14:28:35;7.30;;;6.50;;
1603;SDS011;795;49.296;11.348;2023-04-06T14:31:09;7.90;;;7.10;;
1603;SDS011;795;49.296;11.348;2023-04-06T14:33:42;7.47;;;6.70;;
1603;SDS011;795;49.296;11.348;2023-04-06T14:36:09;8.83;;;7.07;;
1603;SDS011;795;49.296;11.348;2023-04-06T14:38:37;7.00;;;6.30;;
1603;SDS011;795;49.296;11.348;2023-04-06T14:41:05;8.27;;;7.47;;
1603;SDS011;795;49.296;11.348;2023-04-06T14:43:35;7.67;;;6.87;;
1603;SDS011;795;49.296;11.348;2023-04-06T14:46:01;9.60;;;7.03;;
1603;SDS011;795;49.296;11.348;2023-04-06T14:48:28;7.10;;;6.23;;
1603;SDS011;795;49.296;11.348;2023-04-06T14:50:56;8.63;;;7.43;;
1603;SDS011;795;49.296;11.348;2023-04-06T14:53:24;8.70;;;6.30;;
1603;SDS011;795;49.296;11.348;2023-04-06T14:55:52;7.80;;;7.20;;
1603;SDS011;795;49.296;11.348;2023-04-06T14:58:20;7.70;;;7.00;;
1603;SDS011;795;49.296;11.348;2023-04-06T15:00:49;7.60;;;6.90;;
1603;SDS011;795;49.296;11.348;2023-04-06T15:03:26;7.80;;;7.10;;
1603;SDS011;795;49.296;11.348;2023-04-06T15:05:55;7.33;;;6.63;;
1603;SDS011;795;49.296;11.348;2023-04-06T15:08:23;7.10;;;6.40;;
1603;SDS011;795;49.296;11.348;2023-04-06T15:10:51;8.60;;;7.80;;
1603;SDS011;795;49.296;11.348;2023-04-06T15:13:22;14.90;;;7.50;;
1603;SDS011;795;49.296;11.348;2023-04-06T15:15:49;8.17;;;7.30;;
1603;SDS011;795;49.296;11.348;2023-04-06T15:18:17;8.23;;;7.40;;
1603;SDS011;795;49.296;11.348;2023-04-06T15:20:46;10.27;;;7.13;;
1603;SDS011;795;49.296;11.348;2023-04-06T15:23:13;7.83;;;6.90;;
1603;SDS011;795;49.296;11.348;2023-04-06T15:25:40;11.23;;;7.53;;